createdAt,value
2023-04-07T00:00:55.302Z,34.88
2023-04-07T00:03:58.466Z,31.50
2023-04-07T00:07:01.594Z,28.23
2023-04-07T00:10:04.326Z,28.50
2023-04-07T00:13:06.803Z,25.52
2023-04-07T00:16:09.366Z,27.85
2023-04-07T00:19:12.186Z,29.98
2023-04-07T00:22:14.728Z,31.77
2023-04-07T00:25:17.173Z,30.13
2023-04-07T00:28:19.642Z,26.95
2023-04-07T00:31:22.310Z,26.02
2023-04-07T00:34:24.954Z,24.80
2023-04-07T00:37:27.408Z,29.77
2023-04-07T00:40:30.923Z,29.83
2023-04-07T00:43:33.650Z,28.08
2023-04-07T00:46:36.114Z,27.35
2023-04-07T00:49:38.864Z,26.65
2023-04-07T00:52:41.569Z,26.80
2023-04-07T00:55:44.145Z,28.58
2023-04-07T00:58:46.836Z,27.10
2023-04-07T01:02:05.895Z,30.27
2023-04-07T01:05:17.706Z,28.80
2023-04-07T01:08:30.993Z,30.97
2023-04-07T01:11:42.650Z,30.05
2023-04-07T01:14:54.646Z,29.85
2023-04-07T01:18:31.732Z,33.00
2023-04-07T01:21:35.488Z,26.75
2023-04-07T01:24:59.777Z,25.37
2023-04-07T01:28:03.303Z,28.80
2023-04-07T01:31:09.667Z,27.67
2023-04-07T01:34:13.571Z,28.42
2023-04-07T01:37:16.654Z,26.95
2023-04-07T01:40:21.797Z,29.07
2023-04-07T01:43:24.599Z,29.90
2023-04-07T01:46:27.355Z,28.67
2023-04-07T01:49:32.113Z,29.45
2023-04-07T01:52:35.636Z,30.40
2023-04-07T01:55:38.487Z,28.37
2023-04-07T01:58:43.913Z,29.92
2023-04-07T02:01:51.125Z,29.85
2023-04-07T02:05:03.155Z,26.70
2023-04-07T02:08:08.449Z,27.58
2023-04-07T02:11:12.044Z,28.13
2023-04-07T02:14:15.687Z,27.35
2023-04-07T02:17:38.009Z,29.83
2023-04-07T02:20:43.654Z,28.67
2023-04-07T02:23:47.248Z,31.08
2023-04-07T02:26:49.937Z,34.03
2023-04-07T02:29:54.451Z,36.03
2023-04-07T02:32:59.402Z,33.47
2023-04-07T02:36:01.792Z,28.60
2023-04-07T02:39:04.403Z,33.42
2023-04-07T02:42:06.938Z,25.87
2023-04-07T02:45:10.104Z,33.42
2023-04-07T02:48:13.043Z,29.02
2023-04-07T02:51:16.043Z,28.50
2023-04-07T02:54:18.732Z,31.70
2023-04-07T02:57:21.602Z,31.40
2023-04-07T03:00:27.037Z,31.52
2023-04-07T03:03:42.568Z,33.33
2023-04-07T03:06:52.741Z,31.88
2023-04-07T03:09:56.405Z,34.00
2023-04-07T03:12:58.969Z,34.50
2023-04-07T03:16:01.761Z,30.80
2023-04-07T03:19:09.750Z,34.33
2023-04-07T03:22:16.239Z,35.90
2023-04-07T03:25:26.675Z,33.55
2023-04-07T03:28:30.562Z,30.37
2023-04-07T03:31:33.381Z,31.73
2023-04-07T03:34:35.990Z,29.70
2023-04-07T03:37:38.506Z,33.97
2023-04-07T03:40:46.413Z,31.70
2023-04-07T03:43:49.700Z,35.67
2023-04-07T03:46:53.879Z,32.28
2023-04-07T03:49:58.899Z,33.80
2023-04-07T03:53:03.823Z,40.00
2023-04-07T03:56:07.501Z,37.78
2023-04-07T03:59:20.408Z,26.10
2023-04-07T04:02:31.627Z,28.85
2023-04-07T04:05:34.985Z,30.77
2023-04-07T04:08:37.818Z,30.45
2023-04-07T04:11:41.576Z,31.52
2023-04-07T04:14:44.302Z,29.03
2023-04-07T04:17:49.413Z,28.63
2023-04-07T04:20:53.503Z,27.25
2023-04-07T04:23:56.246Z,30.80
2023-04-07T04:26:58.855Z,37.13
2023-04-07T04:30:01.682Z,28.43
2023-04-07T04:33:12.208Z,34.10
2023-04-07T04:36:26.591Z,31.85
2023-04-07T04:39:34.877Z,37.42
2023-04-07T04:42:38.343Z,43.65
2023-04-07T04:45:43.317Z,44.07
2023-04-07T04:48:48.851Z,43.97
2023-04-07T04:51:53.919Z,45.72
2023-04-07T04:54:56.418Z,36.45
2023-04-07T04:57:59.731Z,34.47
2023-04-07T05:01:13.649Z,41.33
2023-04-07T05:04:22.399Z,37.38
2023-04-07T05:07:33.608Z,49.85
2023-04-07T05:10:40.185Z,41.90
2023-04-07T05:13:46.779Z,42.33
2023-04-07T05:16:49.765Z,41.83
2023-04-07T05:19:56.805Z,42.08
2023-04-07T05:23:09.441Z,57.63
2023-04-07T05:26:13.180Z,70.85
2023-04-07T05:29:16.457Z,80.88
2023-04-07T05:32:19.591Z,57.47
2023-04-07T05:35:22.285Z,46.42
2023-04-07T05:38:30.012Z,58.05
2023-04-07T05:41:36.535Z,58.50
2023-04-07T05:44:39.504Z,67.22
2023-04-07T05:47:42.091Z,62.00
2023-04-07T05:50:46.708Z,90.05
2023-04-07T05:53:52.929Z,98.32
2023-04-07T05:56:58.508Z,75.20
2023-04-07T06:00:02.905Z,89.03
2023-04-07T06:03:06.490Z,63.03
2023-04-07T06:06:18.814Z,55.25
2023-04-07T06:09:25.133Z,58.38
2023-04-07T06:12:27.597Z,55.60
2023-04-07T06:15:30.048Z,44.38
2023-04-07T06:18:32.691Z,52.63
2023-04-07T06:21:35.577Z,50.35
2023-04-07T06:24:41.572Z,47.13
2023-04-07T06:27:43.990Z,45.60
2023-04-07T06:30:47.204Z,59.30
2023-04-07T06:33:51.679Z,50.07
2023-04-07T06:36:54.126Z,58.67
2023-04-07T06:39:56.544Z,71.28
2023-04-07T06:42:59.244Z,76.25
2023-04-07T06:46:14.013Z,81.07
2023-04-07T06:49:16.779Z,58.60
2023-04-07T06:52:19.216Z,42.15
2023-04-07T06:55:21.862Z,54.08
2023-04-07T06:58:24.389Z,63.45
2023-04-07T07:01:27.938Z,52.08
2023-04-07T07:04:30.623Z,42.30
2023-04-07T07:07:33.053Z,45.38
2023-04-07T07:10:35.642Z,46.35
2023-04-07T07:13:38.082Z,61.08
2023-04-07T07:16:41.334Z,52.38
2023-04-07T07:19:43.978Z,40.03
2023-04-07T07:22:46.490Z,33.58
2023-04-07T07:25:48.978Z,41.80
2023-04-07T07:28:51.529Z,35.53
2023-04-07T07:31:55.090Z,32.03
2023-04-07T07:34:59.368Z,31.63
2023-04-07T07:38:01.944Z,25.00
2023-04-07T07:41:04.640Z,29.33
2023-04-07T07:44:07.237Z,31.52
2023-04-07T07:47:09.807Z,33.28
2023-04-07T07:50:12.514Z,38.20
2023-04-07T07:53:15.642Z,31.52
2023-04-07T07:56:18.102Z,27.83
2023-04-07T07:59:21.645Z,30.95
2023-04-07T08:02:29.822Z,39.70
2023-04-07T08:05:32.408Z,31.90
2023-04-07T08:08:35.967Z,42.78
2023-04-07T08:11:38.426Z,38.55
2023-04-07T08:14:41.390Z,40.83
2023-04-07T08:17:43.941Z,35.50
2023-04-07T08:20:48.882Z,39.60
2023-04-07T08:23:51.501Z,40.35
2023-04-07T08:26:53.990Z,39.15
2023-04-07T08:30:01.099Z,40.22
2023-04-07T08:33:05.703Z,38.85
2023-04-07T08:36:08.332Z,42.60
2023-04-07T08:39:11.264Z,38.90
2023-04-07T08:42:14.237Z,36.35
2023-04-07T08:45:17.756Z,39.38
2023-04-07T08:48:23.869Z,36.65
2023-04-07T08:51:33.162Z,35.00
2023-04-07T08:54:35.981Z,32.47
2023-04-07T08:57:39.233Z,27.27
2023-04-07T09:00:45.929Z,29.42
2023-04-07T09:03:49.035Z,32.60
2023-04-07T09:06:51.995Z,25.60
2023-04-07T09:09:55.599Z,23.98
2023-04-07T09:12:59.654Z,30.80
2023-04-07T09:16:03.133Z,25.35
2023-04-07T09:19:06.413Z,28.25
2023-04-07T09:22:12.450Z,23.17
2023-04-07T09:25:19.791Z,37.60
2023-04-07T09:28:23.088Z,30.27
2023-04-07T09:31:45.446Z,17.30
2023-04-07T09:34:58.725Z,20.10
2023-04-07T09:38:03.603Z,22.53
2023-04-07T09:41:12.270Z,20.25
2023-04-07T09:44:14.746Z,19.55
2023-04-07T09:47:18.041Z,17.42
2023-04-07T09:50:46.018Z,16.75
2023-04-07T09:53:52.621Z,16.77
2023-04-07T09:56:55.777Z,14.82
2023-04-07T09:59:59.587Z,14.88
2023-04-07T10:03:04.256Z,14.32
2023-04-07T10:06:07.490Z,18.95
2023-04-07T10:09:11.627Z,16.93
2023-04-07T10:12:15.053Z,17.05
2023-04-07T10:15:17.568Z,16.13
2023-04-07T10:18:21.076Z,16.00
2023-04-07T10:21:23.609Z,10.45
2023-04-07T10:24:55.341Z,13.60
2023-04-07T10:28:05.359Z,21.20
2023-04-07T10:31:08.293Z,19.20
2023-04-07T10:34:10.808Z,17.52
2023-04-07T10:37:14.412Z,17.17
2023-04-07T10:40:21.129Z,17.70
2023-04-07T10:43:41.866Z,19.33
2023-04-07T10:46:47.310Z,15.73
2023-04-07T10:50:18.427Z,15.23
2023-04-07T10:53:21.536Z,18.05
2023-04-07T10:56:25.856Z,14.53
2023-04-07T10:59:32.232Z,15.63
2023-04-07T11:02:35.786Z,15.02
2023-04-07T11:05:39.043Z,21.15
2023-04-07T11:08:45.683Z,18.13
2023-04-07T11:11:51.707Z,18.97
2023-04-07T11:14:54.282Z,20.58
2023-04-07T11:18:23.377Z,16.92
2023-04-07T11:21:26.127Z,19.63
2023-04-07T11:24:40.406Z,17.25
2023-04-07T11:27:44.612Z,17.33
2023-04-07T11:30:52.882Z,14.57
2023-04-07T11:33:57.166Z,14.45
2023-04-07T11:37:21.777Z,13.35
2023-04-07T11:40:37.285Z,14.35
2023-04-07T11:43:42.183Z,14.07
2023-04-07T11:47:03.594Z,16.52
2023-04-07T11:50:07.577Z,14.57
2023-04-07T11:53:11.227Z,15.52
2023-04-07T11:56:18.958Z,20.90
2023-04-07T11:59:23.769Z,18.83
2023-04-07T12:02:33.883Z,20.55
2023-04-07T12:05:44.134Z,22.40
2023-04-07T12:08:46.637Z,19.60
2023-04-07T12:11:50.331Z,22.75
2023-04-07T12:14:53.135Z,26.93
2023-04-07T12:17:55.907Z,25.25
2023-04-07T12:20:59.139Z,25.42
2023-04-07T12:24:02.185Z,23.08
2023-04-07T12:27:04.707Z,28.73
2023-04-07T12:30:08.221Z,28.67
2023-04-07T12:33:10.758Z,23.23
2023-04-07T12:36:13.398Z,24.50
2023-04-07T12:39:16.627Z,27.63
2023-04-07T12:42:19.101Z,24.90
2023-04-07T12:45:21.977Z,24.27
2023-04-07T12:48:26.742Z,23.80
2023-04-07T12:51:29.436Z,25.70
2023-04-07T12:54:31.962Z,29.45
2023-04-07T12:57:34.860Z,23.83
2023-04-07T13:00:37.381Z,25.97
2023-04-07T13:03:40.206Z,25.45
2023-04-07T13:06:42.759Z,24.25
2023-04-07T13:09:45.260Z,23.60
2023-04-07T13:12:48.093Z,24.17
2023-04-07T13:15:50.770Z,23.90
2023-04-07T13:18:53.497Z,27.45
2023-04-07T13:21:56.834Z,27.00
2023-04-07T13:25:00.754Z,23.40
2023-04-07T13:28:04.087Z,25.58
2023-04-07T13:31:07.607Z,23.93
2023-04-07T13:34:10.332Z,23.92
2023-04-07T13:37:12.896Z,21.77
2023-04-07T13:40:15.436Z,22.88
2023-04-07T13:43:19.046Z,25.08
2023-04-07T13:46:28.508Z,25.03
2023-04-07T13:49:31.844Z,20.45
2023-04-07T13:52:35.454Z,21.25
2023-04-07T13:55:39.227Z,23.13
2023-04-07T13:58:41.748Z,21.58
2023-04-07T14:01:44.424Z,24.47
2023-04-07T14:04:47.457Z,19.60
2023-04-07T14:07:51.106Z,22.10
2023-04-07T14:10:54.021Z,24.73
2023-04-07T14:13:57.112Z,28.27
2023-04-07T14:16:59.646Z,24.37
2023-04-07T14:20:02.139Z,26.50
2023-04-07T14:23:04.642Z,24.95
2023-04-07T14:26:10.211Z,24.38
2023-04-07T14:29:13.147Z,24.90
2023-04-07T14:32:16.779Z,25.60
2023-04-07T14:35:19.230Z,25.20
2023-04-07T14:38:25.907Z,24.83
2023-04-07T14:41:28.516Z,26.63
2023-04-07T14:44:31.714Z,29.35
2023-04-07T14:47:34.311Z,30.07
2023-04-07T14:50:37.945Z,28.00
2023-04-07T14:53:42.117Z,25.77
2023-04-07T14:56:45.093Z,28.13
2023-04-07T14:59:47.585Z,24.10
2023-04-07T15:02:50.783Z,27.63
2023-04-07T15:05:53.449Z,25.30
2023-04-07T15:08:56.110Z,25.25
2023-04-07T15:12:00.381Z,22.83
2023-04-07T15:15:02.900Z,27.98
2023-04-07T15:18:05.420Z,25.23
2023-04-07T15:21:11.596Z,24.75
2023-04-07T15:24:15.996Z,27.42
2023-04-07T15:27:18.987Z,29.65
2023-04-07T15:30:22.717Z,28.75
2023-04-07T15:33:25.172Z,25.13
2023-04-07T15:36:27.609Z,25.60
2023-04-07T15:39:30.251Z,23.10
2023-04-07T15:42:35.652Z,28.25
2023-04-07T15:45:44.552Z,28.52
2023-04-07T15:48:47.995Z,33.43
2023-04-07T15:51:50.456Z,29.80
2023-04-07T15:54:52.938Z,30.25
2023-04-07T15:57:55.425Z,33.47
2023-04-07T16:01:00.234Z,34.17
2023-04-07T16:04:02.870Z,23.27
2023-04-07T16:07:05.447Z,24.13
2023-04-07T16:10:08.570Z,25.00
2023-04-07T16:13:11.278Z,28.00
2023-04-07T16:16:13.772Z,27.30
2023-04-07T16:19:16.355Z,30.63
2023-04-07T16:22:18.987Z,28.80
2023-04-07T16:25:21.596Z,29.30
2023-04-07T16:28:24.479Z,31.45
2023-04-07T16:31:27.564Z,37.65
2023-04-07T16:34:30.663Z,38.90
2023-04-07T16:37:33.055Z,40.92
2023-04-07T16:40:35.938Z,32.22
2023-04-07T16:43:38.679Z,31.65
2023-04-07T16:46:41.556Z,37.28
2023-04-07T16:49:44.360Z,38.73
2023-04-07T16:52:47.771Z,35.65
2023-04-07T16:55:50.295Z,37.25
2023-04-07T16:58:52.913Z,33.85
2023-04-07T17:01:55.466Z,34.75
2023-04-07T17:04:58.094Z,32.60
2023-04-07T17:08:00.702Z,32.83
2023-04-07T17:11:07.409Z,35.63
2023-04-07T17:14:09.912Z,35.95
2023-04-07T17:17:12.595Z,27.27
2023-04-07T17:20:19.486Z,30.87
2023-04-07T17:23:22.372Z,32.67
2023-04-07T17:26:24.929Z,34.10
2023-04-07T17:29:30.127Z,35.22
2023-04-07T17:32:32.624Z,29.23
2023-04-07T17:35:35.406Z,30.07
2023-04-07T17:38:37.934Z,44.30
2023-04-07T17:41:40.790Z,35.13
2023-04-07T17:44:43.762Z,36.30
2023-04-07T17:47:46.602Z,39.80
2023-04-07T17:50:56.336Z,37.33
2023-04-07T17:53:58.763Z,36.60
2023-04-07T17:57:01.199Z,32.90
2023-04-07T18:00:05.782Z,29.60
2023-04-07T18:03:15.654Z,30.80
2023-04-07T18:06:18.470Z,37.23
2023-04-07T18:09:21.752Z,46.75
2023-04-07T18:12:24.607Z,39.15
2023-04-07T18:15:27.847Z,30.83
2023-04-07T18:18:30.895Z,34.03
2023-04-07T18:21:35.120Z,32.93
2023-04-07T18:24:38.217Z,31.85
2023-04-07T18:27:40.688Z,36.75
2023-04-07T18:30:43.191Z,33.90
2023-04-07T18:33:45.861Z,33.03
2023-04-07T18:36:48.948Z,29.73
2023-04-07T18:39:52.256Z,30.00
2023-04-07T18:42:55.548Z,27.00
2023-04-07T18:45:58.100Z,28.75
2023-04-07T18:49:00.469Z,31.67
2023-04-07T18:52:04.153Z,28.53
2023-04-07T18:55:07.849Z,25.55
2023-04-07T18:58:10.445Z,27.60
2023-04-07T19:01:13.517Z,29.65
2023-04-07T19:04:16.642Z,24.98
2023-04-07T19:07:19.085Z,27.30
2023-04-07T19:10:22.688Z,27.58
2023-04-07T19:13:25.362Z,30.05
2023-04-07T19:16:27.986Z,29.83
2023-04-07T19:19:30.754Z,23.63
2023-04-07T19:22:33.374Z,25.90
2023-04-07T19:25:36.200Z,28.88
2023-04-07T19:28:41.160Z,30.23
2023-04-07T19:31:43.853Z,24.92
2023-04-07T19:34:46.371Z,32.20
2023-04-07T19:37:49.094Z,25.83
2023-04-07T19:40:52.267Z,29.80
2023-04-07T19:43:54.915Z,50.42
2023-04-07T19:46:57.579Z,41.58
2023-04-07T19:50:00.052Z,43.33
2023-04-07T19:53:02.532Z,40.03
2023-04-07T19:56:05.399Z,33.65
2023-04-07T19:59:08.042Z,37.67
2023-04-07T20:02:10.563Z,34.88
2023-04-07T20:05:13.140Z,28.30
2023-04-07T20:08:15.888Z,28.80
2023-04-07T20:11:18.331Z,27.98
2023-04-07T20:14:21.076Z,30.75
2023-04-07T20:17:23.566Z,31.17
2023-04-07T20:20:26.238Z,31.45
2023-04-07T20:23:28.897Z,32.97
2023-04-07T20:26:31.363Z,27.20
2023-04-07T20:29:33.877Z,31.30
2023-04-07T20:32:36.420Z,28.45
2023-04-07T20:35:39.040Z,27.10
2023-04-07T20:38:44.653Z,27.43
2023-04-07T20:41:47.813Z,24.65
2023-04-07T20:44:50.328Z,24.08
2023-04-07T20:47:52.856Z,22.92
2023-04-07T20:50:55.435Z,24.65
2023-04-07T20:53:57.971Z,25.67
2023-04-07T20:57:00.994Z,27.42
2023-04-07T21:00:05.390Z,27.05
2023-04-07T21:03:08.214Z,25.85
2023-04-07T21:06:11.397Z,21.20
2023-04-07T21:09:13.865Z,25.07
2023-04-07T21:12:16.494Z,24.95
2023-04-07T21:15:19.052Z,29.10
2023-04-07T21:18:21.532Z,28.15
2023-04-07T21:21:24.148Z,27.23
2023-04-07T21:24:26.934Z,27.20
2023-04-07T21:27:29.736Z,27.55
2023-04-07T21:30:33.292Z,27.48
2023-04-07T21:33:36.217Z,26.90
2023-04-07T21:36:38.668Z,27.25
2023-04-07T21:39:41.153Z,26.60
2023-04-07T21:42:43.719Z,25.52
2023-04-07T21:45:48.779Z,25.77
2023-04-07T21:48:55.301Z,27.25
2023-04-07T21:51:58.972Z,25.83
2023-04-07T21:55:01.486Z,25.23
2023-04-07T21:58:04.031Z,27.08
2023-04-07T22:01:06.522Z,25.40
2023-04-07T22:04:09.330Z,24.80
2023-04-07T22:07:11.987Z,28.48
2023-04-07T22:10:14.865Z,29.33
2023-04-07T22:13:17.391Z,27.30
2023-04-07T22:16:19.871Z,29.58
2023-04-07T22:19:22.455Z,27.25
2023-04-07T22:22:25.081Z,28.52
2023-04-07T22:25:27.548Z,30.70
2023-04-07T22:28:29.953Z,28.38
2023-04-07T22:31:32.728Z,30.60
2023-04-07T22:34:35.493Z,29.05
2023-04-07T22:37:37.923Z,29.45
2023-04-07T22:40:40.578Z,30.43
2023-04-07T22:43:42.946Z,30.92
2023-04-07T22:46:45.438Z,31.30
2023-04-07T22:49:48.128Z,26.55
2023-04-07T22:52:50.507Z,28.67
2023-04-07T22:55:52.927Z,25.13
2023-04-07T22:58:55.650Z,24.73
2023-04-07T23:01:58.454Z,25.52
2023-04-07T23:05:01.516Z,30.33
2023-04-07T23:08:04.023Z,26.65
2023-04-07T23:11:09.737Z,23.10
2023-04-07T23:14:12.348Z,26.92
2023-04-07T23:17:14.876Z,24.75
2023-04-07T23:20:17.494Z,22.88
2023-04-07T23:23:20.049Z,21.10
2023-04-07T23:26:22.456Z,24.40
2023-04-07T23:29:25.063Z,23.77
2023-04-07T23:32:27.566Z,23.52
2023-04-07T23:35:30.338Z,24.85
2023-04-07T23:38:32.795Z,22.45
2023-04-07T23:41:35.245Z,21.97
2023-04-07T23:44:37.696Z,22.27
2023-04-07T23:47:40.151Z,22.80
2023-04-07T23:50:43.235Z,20.70
2023-04-07T23:53:45.917Z,20.63
2023-04-07T23:56:48.350Z,21.53
2023-04-07T23:59:50.850Z,26.75
